sensor_id;sensor_type;location;lat;lon;timestamp;P1;durP1;ratioP1;P2;durP2;ratioP2
10410;SDS011;5251;52.112;8.606;2022-10-26T00:01:26;8.20;;;5.50;;
10410;SDS011;5251;52.112;8.606;2022-10-26T00:03:53;8.27;;;6.53;;
10410;SDS011;5251;52.112;8.606;2022-10-26T00:06:21;8.32;;;6.07;;
10410;SDS011;5251;52.112;8.606;2022-10-26T00:08:49;8.90;;;5.65;;
10410;SDS011;5251;52.112;8.606;2022-10-26T00:11:16;8.30;;;6.30;;
10410;SDS011;5251;52.112;8.606;2022-10-26T00:13:43;6.60;;;5.90;;
10410;SDS011;5251;52.112;8.606;2022-10-26T00:16:13;5.93;;;5.22;;
10410;SDS011;5251;52.112;8.606;2022-10-26T00:18:41;7.13;;;5.88;;
10410;SDS011;5251;52.112;8.606;2022-10-26T00:21:08;9.10;;;6.13;;
10410;SDS011;5251;52.112;8.606;2022-10-26T00:23:34;6.88;;;5.45;;
10410;SDS011;5251;52.112;8.606;2022-10-26T00:26:00;7.90;;;5.60;;
10410;SDS011;5251;52.112;8.606;2022-10-26T00:28:27;7.63;;;5.75;;
10410;SDS011;5251;52.112;8.606;2022-10-26T00:30:53;7.20;;;5.40;;
10410;SDS011;5251;52.112;8.606;2022-10-26T00:33:19;7.68;;;5.43;;
10410;SDS011;5251;52.112;8.606;2022-10-26T00:35:54;6.07;;;5.30;;
10410;SDS011;5251;52.112;8.606;2022-10-26T00:38:20;9.77;;;5.78;;
10410;SDS011;5251;52.112;8.606;2022-10-26T00:40:46;6.63;;;4.95;;
10410;SDS011;5251;52.112;8.606;2022-10-26T00:43:31;6.32;;;4.75;;
10410;SDS011;5251;52.112;8.606;2022-10-26T00:46:02;6.43;;;4.80;;
10410;SDS011;5251;52.112;8.606;2022-10-26T00:48:35;6.03;;;5.10;;
10410;SDS011;5251;52.112;8.606;2022-10-26T00:51:06;4.97;;;4.38;;
10410;SDS011;5251;52.112;8.606;2022-10-26T00:53:37;6.20;;;4.85;;
10410;SDS011;5251;52.112;8.606;2022-10-26T00:56:03;7.47;;;5.45;;
10410;SDS011;5251;52.112;8.606;2022-10-26T00:58:29;6.72;;;4.97;;
10410;SDS011;5251;52.112;8.606;2022-10-26T01:00:56;5.38;;;4.88;;
10410;SDS011;5251;52.112;8.606;2022-10-26T01:03:21;6.00;;;4.97;;
10410;SDS011;5251;52.112;8.606;2022-10-26T01:05:52;10.48;;;5.15;;
10410;SDS011;5251;52.112;8.606;2022-10-26T01:08:20;7.28;;;4.80;;
10410;SDS011;5251;52.112;8.606;2022-10-26T01:10:46;5.07;;;4.40;;
10410;SDS011;5251;52.112;8.606;2022-10-26T01:13:13;5.90;;;4.78;;
10410;SDS011;5251;52.112;8.606;2022-10-26T01:15:47;6.57;;;4.90;;
10410;SDS011;5251;52.112;8.606;2022-10-26T01:19:13;7.65;;;4.85;;
10410;SDS011;5251;52.112;8.606;2022-10-26T01:29:50;5.95;;;4.68;;
10410;SDS011;5251;52.112;8.606;2022-10-26T01:35:09;5.25;;;4.35;;
10410;SDS011;5251;52.112;8.606;2022-10-26T01:37:48;5.47;;;4.32;;
10410;SDS011;5251;52.112;8.606;2022-10-26T01:40:46;7.07;;;4.43;;
10410;SDS011;5251;52.112;8.606;2022-10-26T01:43:20;6.30;;;4.20;;
10410;SDS011;5251;52.112;8.606;2022-10-26T01:45:46;6.00;;;4.45;;
10410;SDS011;5251;52.112;8.606;2022-10-26T01:48:15;5.75;;;4.30;;
10410;SDS011;5251;52.112;8.606;2022-10-26T01:50:43;4.75;;;4.32;;
10410;SDS011;5251;52.112;8.606;2022-10-26T01:53:12;6.25;;;4.07;;
10410;SDS011;5251;52.112;8.606;2022-10-26T01:55:51;7.65;;;4.60;;
10410;SDS011;5251;52.112;8.606;2022-10-26T01:58:25;8.52;;;4.28;;
10410;SDS011;5251;52.112;8.606;2022-10-26T02:01:20;6.35;;;4.35;;
10410;SDS011;5251;52.112;8.606;2022-10-26T02:09:26;5.65;;;4.30;;
10410;SDS011;5251;52.112;8.606;2022-10-26T02:12:13;4.43;;;4.00;;
10410;SDS011;5251;52.112;8.606;2022-10-26T02:14:48;7.97;;;4.72;;
10410;SDS011;5251;52.112;8.606;2022-10-26T02:20:25;4.88;;;4.20;;
10410;SDS011;5251;52.112;8.606;2022-10-26T02:22:55;6.03;;;4.40;;
10410;SDS011;5251;52.112;8.606;2022-10-26T02:25:26;6.43;;;4.18;;
10410;SDS011;5251;52.112;8.606;2022-10-26T02:27:55;6.57;;;4.30;;
10410;SDS011;5251;52.112;8.606;2022-10-26T02:30:28;5.38;;;3.90;;
10410;SDS011;5251;52.112;8.606;2022-10-26T02:32:55;5.80;;;3.92;;
10410;SDS011;5251;52.112;8.606;2022-10-26T02:35:22;4.43;;;3.88;;
10410;SDS011;5251;52.112;8.606;2022-10-26T02:37:52;4.43;;;3.72;;
10410;SDS011;5251;52.112;8.606;2022-10-26T02:40:23;4.82;;;3.85;;
10410;SDS011;5251;52.112;8.606;2022-10-26T02:42:51;5.05;;;3.88;;
10410;SDS011;5251;52.112;8.606;2022-10-26T02:45:20;4.22;;;3.60;;
10410;SDS011;5251;52.112;8.606;2022-10-26T02:47:50;4.28;;;3.88;;
10410;SDS011;5251;52.112;8.606;2022-10-26T02:50:18;5.00;;;3.83;;
10410;SDS011;5251;52.112;8.606;2022-10-26T02:52:51;5.90;;;3.40;;
10410;SDS011;5251;52.112;8.606;2022-10-26T02:55:35;6.30;;;4.03;;
10410;SDS011;5251;52.112;8.606;2022-10-26T02:58:09;4.93;;;3.60;;
10410;SDS011;5251;52.112;8.606;2022-10-26T03:00:38;8.73;;;4.03;;
10410;SDS011;5251;52.112;8.606;2022-10-26T03:03:04;5.88;;;4.00;;
10410;SDS011;5251;52.112;8.606;2022-10-26T03:05:30;5.20;;;4.07;;
10410;SDS011;5251;52.112;8.606;2022-10-26T03:07:56;6.50;;;3.85;;
10410;SDS011;5251;52.112;8.606;2022-10-26T03:10:23;6.22;;;3.95;;
10410;SDS011;5251;52.112;8.606;2022-10-26T03:12:49;4.60;;;3.67;;
10410;SDS011;5251;52.112;8.606;2022-10-26T03:15:15;5.30;;;4.00;;
10410;SDS011;5251;52.112;8.606;2022-10-26T03:17:40;7.20;;;4.47;;
10410;SDS011;5251;52.112;8.606;2022-10-26T03:20:06;5.53;;;3.60;;
10410;SDS011;5251;52.112;8.606;2022-10-26T03:22:32;5.05;;;4.10;;
10410;SDS011;5251;52.112;8.606;2022-10-26T03:24:58;5.10;;;4.00;;
10410;SDS011;5251;52.112;8.606;2022-10-26T03:27:24;6.80;;;4.47;;
10410;SDS011;5251;52.112;8.606;2022-10-26T03:29:50;5.55;;;3.95;;
10410;SDS011;5251;52.112;8.606;2022-10-26T03:32:16;4.43;;;3.85;;
10410;SDS011;5251;52.112;8.606;2022-10-26T03:34:42;4.90;;;4.03;;
10410;SDS011;5251;52.112;8.606;2022-10-26T03:37:07;4.82;;;4.05;;
10410;SDS011;5251;52.112;8.606;2022-10-26T03:39:33;4.35;;;3.78;;
10410;SDS011;5251;52.112;8.606;2022-10-26T03:41:59;5.13;;;4.30;;
10410;SDS011;5251;52.112;8.606;2022-10-26T03:44:24;5.68;;;4.05;;
10410;SDS011;5251;52.112;8.606;2022-10-26T03:46:50;7.32;;;4.53;;
10410;SDS011;5251;52.112;8.606;2022-10-26T03:49:15;6.38;;;4.15;;
10410;SDS011;5251;52.112;8.606;2022-10-26T03:51:41;6.60;;;4.53;;
10410;SDS011;5251;52.112;8.606;2022-10-26T03:54:06;5.90;;;4.65;;
10410;SDS011;5251;52.112;8.606;2022-10-26T03:56:33;5.45;;;4.03;;
10410;SDS011;5251;52.112;8.606;2022-10-26T03:58:58;8.23;;;4.78;;
10410;SDS011;5251;52.112;8.606;2022-10-26T04:01:24;7.97;;;4.65;;
10410;SDS011;5251;52.112;8.606;2022-10-26T04:03:49;7.32;;;4.72;;
10410;SDS011;5251;52.112;8.606;2022-10-26T04:06:15;6.95;;;4.68;;
10410;SDS011;5251;52.112;8.606;2022-10-26T04:08:41;5.47;;;4.43;;
10410;SDS011;5251;52.112;8.606;2022-10-26T04:11:06;6.70;;;4.70;;
10410;SDS011;5251;52.112;8.606;2022-10-26T04:13:32;6.30;;;4.75;;
10410;SDS011;5251;52.112;8.606;2022-10-26T04:15:57;7.32;;;4.82;;
10410;SDS011;5251;52.112;8.606;2022-10-26T04:18:23;7.53;;;5.03;;
10410;SDS011;5251;52.112;8.606;2022-10-26T04:20:49;6.63;;;4.75;;
10410;SDS011;5251;52.112;8.606;2022-10-26T04:23:15;6.97;;;4.75;;
10410;SDS011;5251;52.112;8.606;2022-10-26T04:25:42;6.78;;;4.80;;
10410;SDS011;5251;52.112;8.606;2022-10-26T04:28:08;7.20;;;5.13;;
10410;SDS011;5251;52.112;8.606;2022-10-26T04:30:34;7.03;;;5.38;;
10410;SDS011;5251;52.112;8.606;2022-10-26T04:33:00;7.80;;;5.55;;
10410;SDS011;5251;52.112;8.606;2022-10-26T04:35:27;9.98;;;5.97;;
10410;SDS011;5251;52.112;8.606;2022-10-26T04:37:56;8.57;;;5.80;;
10410;SDS011;5251;52.112;8.606;2022-10-26T04:40:26;7.13;;;5.93;;
10410;SDS011;5251;52.112;8.606;2022-10-26T04:42:52;7.57;;;5.57;;
10410;SDS011;5251;52.112;8.606;2022-10-26T04:45:18;8.98;;;5.90;;
10410;SDS011;5251;52.112;8.606;2022-10-26T04:47:43;9.00;;;6.38;;
10410;SDS011;5251;52.112;8.606;2022-10-26T04:50:10;7.38;;;5.82;;
10410;SDS011;5251;52.112;8.606;2022-10-26T04:52:36;8.00;;;5.75;;
10410;SDS011;5251;52.112;8.606;2022-10-26T04:55:02;8.10;;;6.15;;
10410;SDS011;5251;52.112;8.606;2022-10-26T04:57:30;7.00;;;5.47;;
10410;SDS011;5251;52.112;8.606;2022-10-26T04:59:57;8.68;;;6.22;;
10410;SDS011;5251;52.112;8.606;2022-10-26T05:02:23;8.68;;;5.55;;
10410;SDS011;5251;52.112;8.606;2022-10-26T05:04:48;7.80;;;5.60;;
10410;SDS011;5251;52.112;8.606;2022-10-26T05:07:14;8.88;;;6.28;;
10410;SDS011;5251;52.112;8.606;2022-10-26T05:09:40;8.32;;;6.40;;
10410;SDS011;5251;52.112;8.606;2022-10-26T05:12:05;9.05;;;6.55;;
10410;SDS011;5251;52.112;8.606;2022-10-26T05:14:31;11.13;;;6.32;;
10410;SDS011;5251;52.112;8.606;2022-10-26T05:16:56;8.68;;;6.40;;
10410;SDS011;5251;52.112;8.606;2022-10-26T05:19:22;9.90;;;6.28;;
10410;SDS011;5251;52.112;8.606;2022-10-26T05:21:48;9.63;;;6.97;;
10410;SDS011;5251;52.112;8.606;2022-10-26T05:24:13;8.35;;;6.10;;
10410;SDS011;5251;52.112;8.606;2022-10-26T05:26:39;9.80;;;6.88;;
10410;SDS011;5251;52.112;8.606;2022-10-26T05:29:04;9.82;;;6.22;;
10410;SDS011;5251;52.112;8.606;2022-10-26T05:31:30;9.95;;;7.07;;
10410;SDS011;5251;52.112;8.606;2022-10-26T05:33:55;9.23;;;7.03;;
10410;SDS011;5251;52.112;8.606;2022-10-26T05:36:21;8.73;;;6.57;;
10410;SDS011;5251;52.112;8.606;2022-10-26T05:38:46;10.98;;;6.60;;
10410;SDS011;5251;52.112;8.606;2022-10-26T05:41:12;9.93;;;6.38;;
10410;SDS011;5251;52.112;8.606;2022-10-26T05:43:37;8.77;;;6.88;;
10410;SDS011;5251;52.112;8.606;2022-10-26T05:46:03;9.60;;;7.00;;
10410;SDS011;5251;52.112;8.606;2022-10-26T05:48:29;10.00;;;6.80;;
10410;SDS011;5251;52.112;8.606;2022-10-26T05:50:57;9.23;;;6.72;;
10410;SDS011;5251;52.112;8.606;2022-10-26T05:53:24;9.35;;;6.82;;
10410;SDS011;5251;52.112;8.606;2022-10-26T05:55:50;9.88;;;6.50;;
10410;SDS011;5251;52.112;8.606;2022-10-26T05:58:16;10.45;;;6.63;;
10410;SDS011;5251;52.112;8.606;2022-10-26T06:00:46;9.75;;;6.82;;
10410;SDS011;5251;52.112;8.606;2022-10-26T06:07:09;10.15;;;7.30;;
10410;SDS011;5251;52.112;8.606;2022-10-26T06:09:38;9.00;;;6.90;;
10410;SDS011;5251;52.112;8.606;2022-10-26T06:12:04;10.40;;;6.97;;
10410;SDS011;5251;52.112;8.606;2022-10-26T06:14:31;9.68;;;7.22;;
10410;SDS011;5251;52.112;8.606;2022-10-26T06:27:45;7.88;;;6.60;;
10410;SDS011;5251;52.112;8.606;2022-10-26T06:30:24;9.48;;;7.28;;
10410;SDS011;5251;52.112;8.606;2022-10-26T06:32:50;11.65;;;6.38;;
10410;SDS011;5251;52.112;8.606;2022-10-26T06:37:51;9.27;;;7.03;;
10410;SDS011;5251;52.112;8.606;2022-10-26T06:40:18;8.02;;;6.38;;
10410;SDS011;5251;52.112;8.606;2022-10-26T06:42:44;9.45;;;6.50;;
10410;SDS011;5251;52.112;8.606;2022-10-26T06:45:13;8.15;;;6.50;;
10410;SDS011;5251;52.112;8.606;2022-10-26T06:50:37;8.95;;;6.13;;
10410;SDS011;5251;52.112;8.606;2022-10-26T06:53:20;7.93;;;6.50;;
10410;SDS011;5251;52.112;8.606;2022-10-26T06:56:01;10.93;;;6.55;;
10410;SDS011;5251;52.112;8.606;2022-10-26T06:58:28;8.57;;;6.50;;
10410;SDS011;5251;52.112;8.606;2022-10-26T07:00:57;7.03;;;5.70;;
10410;SDS011;5251;52.112;8.606;2022-10-26T07:03:23;7.68;;;6.05;;
10410;SDS011;5251;52.112;8.606;2022-10-26T07:05:48;8.40;;;6.35;;
10410;SDS011;5251;52.112;8.606;2022-10-26T07:08:14;7.93;;;5.88;;
10410;SDS011;5251;52.112;8.606;2022-10-26T07:10:40;8.73;;;6.25;;
10410;SDS011;5251;52.112;8.606;2022-10-26T07:13:07;7.32;;;5.78;;
10410;SDS011;5251;52.112;8.606;2022-10-26T07:15:33;6.70;;;5.78;;
10410;SDS011;5251;52.112;8.606;2022-10-26T07:18:00;9.57;;;5.75;;
10410;SDS011;5251;52.112;8.606;2022-10-26T07:20:29;7.85;;;5.75;;
10410;SDS011;5251;52.112;8.606;2022-10-26T07:22:56;7.57;;;5.85;;
10410;SDS011;5251;52.112;8.606;2022-10-26T07:25:23;8.50;;;5.75;;
10410;SDS011;5251;52.112;8.606;2022-10-26T07:27:49;7.50;;;6.22;;
10410;SDS011;5251;52.112;8.606;2022-10-26T07:30:15;9.45;;;5.70;;
10410;SDS011;5251;52.112;8.606;2022-10-26T07:32:41;7.22;;;5.20;;
10410;SDS011;5251;52.112;8.606;2022-10-26T07:35:07;10.02;;;6.00;;
10410;SDS011;5251;52.112;8.606;2022-10-26T07:37:32;7.53;;;5.35;;
10410;SDS011;5251;52.112;8.606;2022-10-26T07:39:58;7.65;;;5.40;;
10410;SDS011;5251;52.112;8.606;2022-10-26T07:42:23;8.68;;;5.90;;
10410;SDS011;5251;52.112;8.606;2022-10-26T07:44:49;7.43;;;5.15;;
10410;SDS011;5251;52.112;8.606;2022-10-26T07:47:15;7.50;;;5.20;;
10410;SDS011;5251;52.112;8.606;2022-10-26T07:49:40;7.07;;;5.03;;
10410;SDS011;5251;52.112;8.606;2022-10-26T07:52:06;7.22;;;5.40;;
10410;SDS011;5251;52.112;8.606;2022-10-26T07:54:31;10.73;;;5.22;;
10410;SDS011;5251;52.112;8.606;2022-10-26T07:56:57;6.47;;;5.15;;
10410;SDS011;5251;52.112;8.606;2022-10-26T07:59:23;6.70;;;5.00;;
10410;SDS011;5251;52.112;8.606;2022-10-26T08:01:49;5.93;;;5.10;;
10410;SDS011;5251;52.112;8.606;2022-10-26T08:04:14;6.38;;;5.13;;
10410;SDS011;5251;52.112;8.606;2022-10-26T08:06:40;7.88;;;4.85;;
10410;SDS011;5251;52.112;8.606;2022-10-26T08:09:06;5.28;;;4.57;;
10410;SDS011;5251;52.112;8.606;2022-10-26T08:11:31;6.85;;;5.22;;
10410;SDS011;5251;52.112;8.606;2022-10-26T08:13:57;7.10;;;4.70;;
10410;SDS011;5251;52.112;8.606;2022-10-26T08:16:23;6.85;;;4.13;;
10410;SDS011;5251;52.112;8.606;2022-10-26T08:18:49;6.10;;;4.50;;
10410;SDS011;5251;52.112;8.606;2022-10-26T08:21:15;6.53;;;4.22;;
10410;SDS011;5251;52.112;8.606;2022-10-26T08:23:42;6.10;;;4.03;;
10410;SDS011;5251;52.112;8.606;2022-10-26T08:26:08;8.10;;;4.53;;
10410;SDS011;5251;52.112;8.606;2022-10-26T08:28:37;7.55;;;4.38;;
10410;SDS011;5251;52.112;8.606;2022-10-26T08:31:03;7.43;;;4.30;;
10410;SDS011;5251;52.112;8.606;2022-10-26T08:33:29;7.78;;;4.22;;
10410;SDS011;5251;52.112;8.606;2022-10-26T08:35:55;4.95;;;4.40;;
10410;SDS011;5251;52.112;8.606;2022-10-26T08:38:25;7.88;;;4.40;;
10410;SDS011;5251;52.112;8.606;2022-10-26T08:40:51;5.30;;;3.78;;
10410;SDS011;5251;52.112;8.606;2022-10-26T08:43:39;7.53;;;4.32;;
10410;SDS011;5251;52.112;8.606;2022-10-26T08:46:20;5.18;;;4.10;;
10410;SDS011;5251;52.112;8.606;2022-10-26T08:48:53;5.32;;;4.35;;
10410;SDS011;5251;52.112;8.606;2022-10-26T08:51:33;5.35;;;4.30;;
10410;SDS011;5251;52.112;8.606;2022-10-26T08:56:37;4.70;;;3.47;;
10410;SDS011;5251;52.112;8.606;2022-10-26T08:59:17;4.72;;;3.80;;
10410;SDS011;5251;52.112;8.606;2022-10-26T09:02:14;5.50;;;4.20;;
10410;SDS011;5251;52.112;8.606;2022-10-26T09:04:41;6.25;;;4.10;;
10410;SDS011;5251;52.112;8.606;2022-10-26T09:10:10;5.55;;;3.53;;
10410;SDS011;5251;52.112;8.606;2022-10-26T09:12:43;7.22;;;3.90;;
10410;SDS011;5251;52.112;8.606;2022-10-26T09:18:17;6.05;;;3.78;;
10410;SDS011;5251;52.112;8.606;2022-10-26T09:21:20;3.47;;;3.17;;
10410;SDS011;5251;52.112;8.606;2022-10-26T09:29:16;5.72;;;3.35;;
10410;SDS011;5251;52.112;8.606;2022-10-26T09:31:44;4.10;;;3.40;;
10410;SDS011;5251;52.112;8.606;2022-10-26T09:37:22;6.32;;;3.78;;
10410;SDS011;5251;52.112;8.606;2022-10-26T09:40:10;8.70;;;3.00;;
10410;SDS011;5251;52.112;8.606;2022-10-26T09:45:37;4.20;;;2.88;;
10410;SDS011;5251;52.112;8.606;2022-10-26T09:48:47;4.90;;;3.05;;
10410;SDS011;5251;52.112;8.606;2022-10-26T09:51:06;8.80;;;2.80;;
10410;SDS011;5251;52.112;8.606;2022-10-26T09:53:33;4.90;;;2.53;;
10410;SDS011;5251;52.112;8.606;2022-10-26T09:56:00;4.75;;;2.53;;
10410;SDS011;5251;52.112;8.606;2022-10-26T09:59:18;6.60;;;2.80;;
10410;SDS011;5251;52.112;8.606;2022-10-26T10:01:28;4.10;;;2.85;;
10410;SDS011;5251;52.112;8.606;2022-10-26T10:04:09;5.38;;;2.60;;
10410;SDS011;5251;52.112;8.606;2022-10-26T10:07:10;4.07;;;2.45;;
10410;SDS011;5251;52.112;8.606;2022-10-26T10:09:38;2.72;;;2.38;;
10410;SDS011;5251;52.112;8.606;2022-10-26T10:12:03;3.58;;;2.65;;
10410;SDS011;5251;52.112;8.606;2022-10-26T10:14:30;5.28;;;2.38;;
10410;SDS011;5251;52.112;8.606;2022-10-26T10:16:59;4.80;;;2.50;;
10410;SDS011;5251;52.112;8.606;2022-10-26T10:22:00;2.80;;;2.00;;
10410;SDS011;5251;52.112;8.606;2022-10-26T10:24:33;4.30;;;2.00;;
10410;SDS011;5251;52.112;8.606;2022-10-26T10:27:19;3.85;;;2.00;;
10410;SDS011;5251;52.112;8.606;2022-10-26T10:34:51;6.78;;;2.17;;
10410;SDS011;5251;52.112;8.606;2022-10-26T10:37:30;2.45;;;2.00;;
10410;SDS011;5251;52.112;8.606;2022-10-26T10:42:34;3.47;;;2.28;;
10410;SDS011;5251;52.112;8.606;2022-10-26T10:45:03;3.00;;;2.13;;
10410;SDS011;5251;52.112;8.606;2022-10-26T10:47:31;3.10;;;2.10;;
10410;SDS011;5251;52.112;8.606;2022-10-26T10:50:17;3.53;;;2.20;;
10410;SDS011;5251;52.112;8.606;2022-10-26T10:52:44;2.38;;;1.88;;
10410;SDS011;5251;52.112;8.606;2022-10-26T11:00:34;3.47;;;2.00;;
10410;SDS011;5251;52.112;8.606;2022-10-26T11:06:12;3.90;;;1.90;;
10410;SDS011;5251;52.112;8.606;2022-10-26T11:08:54;3.85;;;2.15;;
10410;SDS011;5251;52.112;8.606;2022-10-26T11:14:01;2.88;;;1.73;;
10410;SDS011;5251;52.112;8.606;2022-10-26T11:16:51;4.97;;;1.73;;
10410;SDS011;5251;52.112;8.606;2022-10-26T11:19:23;4.18;;;2.10;;
10410;SDS011;5251;52.112;8.606;2022-10-26T11:21:54;2.35;;;1.90;;
10410;SDS011;5251;52.112;8.606;2022-10-26T11:32:34;2.63;;;1.80;;
10410;SDS011;5251;52.112;8.606;2022-10-26T11:35:18;2.05;;;1.63;;
10410;SDS011;5251;52.112;8.606;2022-10-26T11:41:22;3.15;;;1.60;;
10410;SDS011;5251;52.112;8.606;2022-10-26T11:44:04;5.47;;;2.15;;
10410;SDS011;5251;52.112;8.606;2022-10-26T11:46:41;4.88;;;1.90;;
10410;SDS011;5251;52.112;8.606;2022-10-26T11:51:55;4.65;;;2.30;;
10410;SDS011;5251;52.112;8.606;2022-10-26T11:54:55;2.97;;;2.13;;
10410;SDS011;5251;52.112;8.606;2022-10-26T11:57:28;1.58;;;1.48;;
10410;SDS011;5251;52.112;8.606;2022-10-26T12:00:02;2.00;;;1.73;;
10410;SDS011;5251;52.112;8.606;2022-10-26T12:02:30;3.78;;;1.67;;
10410;SDS011;5251;52.112;8.606;2022-10-26T12:07:42;2.42;;;1.50;;
10410;SDS011;5251;52.112;8.606;2022-10-26T12:10:20;4.30;;;1.95;;
10410;SDS011;5251;52.112;8.606;2022-10-26T12:12:59;2.70;;;1.48;;
10410;SDS011;5251;52.112;8.606;2022-10-26T12:15:47;3.35;;;1.30;;
10410;SDS011;5251;52.112;8.606;2022-10-26T12:18:23;3.45;;;1.33;;
10410;SDS011;5251;52.112;8.606;2022-10-26T12:21:00;3.28;;;1.85;;
10410;SDS011;5251;52.112;8.606;2022-10-26T12:23:29;4.25;;;2.00;;
10410;SDS011;5251;52.112;8.606;2022-10-26T12:28:46;4.18;;;1.55;;
10410;SDS011;5251;52.112;8.606;2022-10-26T12:33:56;3.20;;;1.70;;
10410;SDS011;5251;52.112;8.606;2022-10-26T12:39:30;2.20;;;1.73;;
10410;SDS011;5251;52.112;8.606;2022-10-26T12:41:57;1.95;;;1.48;;
10410;SDS011;5251;52.112;8.606;2022-10-26T12:44:35;3.28;;;1.60;;
10410;SDS011;5251;52.112;8.606;2022-10-26T12:47:05;2.17;;;1.42;;
10410;SDS011;5251;52.112;8.606;2022-10-26T12:52:25;3.72;;;1.40;;
10410;SDS011;5251;52.112;8.606;2022-10-26T12:55:46;1.83;;;1.20;;
10410;SDS011;5251;52.112;8.606;2022-10-26T13:03:28;3.20;;;1.52;;
10410;SDS011;5251;52.112;8.606;2022-10-26T13:06:17;5.25;;;1.75;;
10410;SDS011;5251;52.112;8.606;2022-10-26T13:08:49;2.25;;;1.58;;
10410;SDS011;5251;52.112;8.606;2022-10-26T13:11:31;1.50;;;1.40;;
10410;SDS011;5251;52.112;8.606;2022-10-26T13:14:03;1.83;;;1.40;;
10410;SDS011;5251;52.112;8.606;2022-10-26T13:16:31;2.13;;;1.20;;
10410;SDS011;5251;52.112;8.606;2022-10-26T13:18:57;3.58;;;1.60;;
10410;SDS011;5251;52.112;8.606;2022-10-26T13:21:24;2.38;;;1.58;;
10410;SDS011;5251;52.112;8.606;2022-10-26T13:26:21;1.45;;;1.27;;
10410;SDS011;5251;52.112;8.606;2022-10-26T13:28:50;4.28;;;1.70;;
10410;SDS011;5251;52.112;8.606;2022-10-26T13:36:41;2.55;;;1.30;;
10410;SDS011;5251;52.112;8.606;2022-10-26T13:41:44;4.28;;;1.55;;
10410;SDS011;5251;52.112;8.606;2022-10-26T13:47:13;5.65;;;1.30;;
10410;SDS011;5251;52.112;8.606;2022-10-26T13:49:47;2.45;;;1.73;;
10410;SDS011;5251;52.112;8.606;2022-10-26T13:52:18;2.53;;;1.33;;
10410;SDS011;5251;52.112;8.606;2022-10-26T13:54:58;2.38;;;1.48;;
10410;SDS011;5251;52.112;8.606;2022-10-26T13:57:33;5.28;;;1.95;;
10410;SDS011;5251;52.112;8.606;2022-10-26T14:00:16;3.05;;;1.50;;
10410;SDS011;5251;52.112;8.606;2022-10-26T14:02:46;3.28;;;1.65;;
10410;SDS011;5251;52.112;8.606;2022-10-26T14:05:12;4.32;;;1.80;;
10410;SDS011;5251;52.112;8.606;2022-10-26T14:07:42;4.78;;;1.75;;
10410;SDS011;5251;52.112;8.606;2022-10-26T14:10:26;4.45;;;2.20;;
10410;SDS011;5251;52.112;8.606;2022-10-26T14:13:01;3.65;;;1.60;;
10410;SDS011;5251;52.112;8.606;2022-10-26T14:15:40;5.97;;;1.85;;
10410;SDS011;5251;52.112;8.606;2022-10-26T14:18:11;1.63;;;1.45;;
10410;SDS011;5251;52.112;8.606;2022-10-26T14:20:55;4.32;;;1.70;;
10410;SDS011;5251;52.112;8.606;2022-10-26T14:23:24;3.08;;;1.83;;
10410;SDS011;5251;52.112;8.606;2022-10-26T14:26:22;2.30;;;1.52;;
10410;SDS011;5251;52.112;8.606;2022-10-26T14:28:52;2.03;;;1.40;;
10410;SDS011;5251;52.112;8.606;2022-10-26T14:31:20;3.03;;;1.58;;
10410;SDS011;5251;52.112;8.606;2022-10-26T14:33:48;4.05;;;1.52;;
10410;SDS011;5251;52.112;8.606;2022-10-26T14:36:14;3.42;;;1.67;;
10410;SDS011;5251;52.112;8.606;2022-10-26T14:38:42;5.55;;;1.65;;
10410;SDS011;5251;52.112;8.606;2022-10-26T14:41:11;2.90;;;1.80;;
10410;SDS011;5251;52.112;8.606;2022-10-26T14:43:40;5.57;;;1.95;;
10410;SDS011;5251;52.112;8.606;2022-10-26T14:46:10;3.55;;;1.67;;
10410;SDS011;5251;52.112;8.606;2022-10-26T14:48:41;2.95;;;1.60;;
10410;SDS011;5251;52.112;8.606;2022-10-26T14:51:21;4.30;;;1.83;;
10410;SDS011;5251;52.112;8.606;2022-10-26T14:53:51;4.95;;;1.60;;
10410;SDS011;5251;52.112;8.606;2022-10-26T14:59:08;4.28;;;1.60;;
10410;SDS011;5251;52.112;8.606;2022-10-26T15:01:56;3.28;;;1.65;;
10410;SDS011;5251;52.112;8.606;2022-10-26T15:04:31;3.05;;;1.60;;
10410;SDS011;5251;52.112;8.606;2022-10-26T15:07:22;3.78;;;1.60;;
10410;SDS011;5251;52.112;8.606;2022-10-26T15:09:48;3.75;;;1.70;;
10410;SDS011;5251;52.112;8.606;2022-10-26T15:12:18;4.22;;;1.80;;
10410;SDS011;5251;52.112;8.606;2022-10-26T15:14:47;6.30;;;1.67;;
10410;SDS011;5251;52.112;8.606;2022-10-26T15:17:21;3.20;;;1.77;;
10410;SDS011;5251;52.112;8.606;2022-10-26T15:19:51;7.80;;;2.22;;
10410;SDS011;5251;52.112;8.606;2022-10-26T15:22:25;4.80;;;1.85;;
10410;SDS011;5251;52.112;8.606;2022-10-26T15:24:53;3.03;;;1.70;;
10410;SDS011;5251;52.112;8.606;2022-10-26T15:27:22;2.45;;;1.60;;
10410;SDS011;5251;52.112;8.606;2022-10-26T15:29:50;4.05;;;1.50;;
10410;SDS011;5251;52.112;8.606;2022-10-26T15:34:48;2.88;;;1.50;;
10410;SDS011;5251;52.112;8.606;2022-10-26T15:37:29;5.38;;;1.90;;
10410;SDS011;5251;52.112;8.606;2022-10-26T15:39:55;3.78;;;1.85;;
10410;SDS011;5251;52.112;8.606;2022-10-26T15:42:24;2.47;;;1.60;;
10410;SDS011;5251;52.112;8.606;2022-10-26T15:44:50;3.58;;;1.67;;
10410;SDS011;5251;52.112;8.606;2022-10-26T15:47:17;7.68;;;1.90;;
10410;SDS011;5251;52.112;8.606;2022-10-26T15:49:44;4.82;;;1.90;;
10410;SDS011;5251;52.112;8.606;2022-10-26T15:52:10;2.83;;;1.75;;
10410;SDS011;5251;52.112;8.606;2022-10-26T15:54:36;5.18;;;1.60;;
10410;SDS011;5251;52.112;8.606;2022-10-26T15:57:02;3.10;;;1.73;;
10410;SDS011;5251;52.112;8.606;2022-10-26T15:59:27;4.07;;;1.67;;
10410;SDS011;5251;52.112;8.606;2022-10-26T16:01:53;3.63;;;1.80;;
10410;SDS011;5251;52.112;8.606;2022-10-26T16:04:18;3.90;;;2.20;;
10410;SDS011;5251;52.112;8.606;2022-10-26T16:06:44;3.60;;;1.80;;
10410;SDS011;5251;52.112;8.606;2022-10-26T16:09:14;5.75;;;1.83;;
10410;SDS011;5251;52.112;8.606;2022-10-26T16:11:42;4.70;;;1.95;;
10410;SDS011;5251;52.112;8.606;2022-10-26T16:14:11;3.70;;;1.73;;
10410;SDS011;5251;52.112;8.606;2022-10-26T16:16:36;4.25;;;1.67;;
10410;SDS011;5251;52.112;8.606;2022-10-26T16:19:03;2.50;;;1.70;;
10410;SDS011;5251;52.112;8.606;2022-10-26T16:21:28;3.15;;;1.80;;
10410;SDS011;5251;52.112;8.606;2022-10-26T16:23:54;4.10;;;1.90;;
10410;SDS011;5251;52.112;8.606;2022-10-26T16:26:21;5.90;;;2.00;;
10410;SDS011;5251;52.112;8.606;2022-10-26T16:28:47;2.75;;;1.70;;
10410;SDS011;5251;52.112;8.606;2022-10-26T16:31:14;2.83;;;1.83;;
10410;SDS011;5251;52.112;8.606;2022-10-26T16:33:41;3.15;;;2.00;;
10410;SDS011;5251;52.112;8.606;2022-10-26T16:36:07;1.90;;;1.58;;
10410;SDS011;5251;52.112;8.606;2022-10-26T16:38:34;3.40;;;1.80;;
10410;SDS011;5251;52.112;8.606;2022-10-26T16:41:10;3.65;;;1.73;;
10410;SDS011;5251;52.112;8.606;2022-10-26T16:43:38;3.25;;;1.77;;
10410;SDS011;5251;52.112;8.606;2022-10-26T16:46:05;3.28;;;1.73;;
10410;SDS011;5251;52.112;8.606;2022-10-26T16:48:36;2.00;;;1.55;;
10410;SDS011;5251;52.112;8.606;2022-10-26T16:51:35;3.45;;;1.65;;
10410;SDS011;5251;52.112;8.606;2022-10-26T16:53:54;2.03;;;1.67;;
10410;SDS011;5251;52.112;8.606;2022-10-26T16:56:22;4.20;;;2.13;;
10410;SDS011;5251;52.112;8.606;2022-10-26T16:58:49;2.35;;;1.55;;
10410;SDS011;5251;52.112;8.606;2022-10-26T17:01:15;2.70;;;1.80;;
10410;SDS011;5251;52.112;8.606;2022-10-26T17:03:43;4.20;;;1.90;;
10410;SDS011;5251;52.112;8.606;2022-10-26T17:06:10;3.20;;;1.75;;
10410;SDS011;5251;52.112;8.606;2022-10-26T17:08:35;3.88;;;1.75;;
10410;SDS011;5251;52.112;8.606;2022-10-26T17:11:08;1.80;;;1.55;;
10410;SDS011;5251;52.112;8.606;2022-10-26T17:13:38;3.40;;;1.90;;
10410;SDS011;5251;52.112;8.606;2022-10-26T17:18:41;4.90;;;1.80;;
10410;SDS011;5251;52.112;8.606;2022-10-26T17:21:08;3.60;;;1.80;;
10410;SDS011;5251;52.112;8.606;2022-10-26T17:23:35;2.42;;;1.63;;
10410;SDS011;5251;52.112;8.606;2022-10-26T17:26:01;3.05;;;1.77;;
10410;SDS011;5251;52.112;8.606;2022-10-26T17:28:28;3.58;;;1.88;;
10410;SDS011;5251;52.112;8.606;2022-10-26T17:33:51;4.07;;;1.90;;
10410;SDS011;5251;52.112;8.606;2022-10-26T17:36:18;4.32;;;2.20;;
10410;SDS011;5251;52.112;8.606;2022-10-26T17:38:49;4.78;;;1.90;;